Overview Statistics Trail Chart Weather Telemetry Raw packets
 

This is the latest recevied weather packets stored in our database for station/object N3LF. If no packets are shown the sender has not sent any weather packets the latest 10 day(s).

<< 1 2 3 4 >>
Time Temp. Humidity Pressure Rain* Wind** Luminosity Snow
1788631081 37.22° C 50% 1016.1 hPa 0 mm - 678 W/m² -
1788630776 37.22° C 50% 1016.1 hPa 0 mm - 234 W/m² -
1788630471 36.67° C 51% 1016 hPa 0 mm - 717 W/m² -
1788630167 35.56° C 53% 1016 hPa 0 mm - 701 W/m² -
1788629863 36.67° C 52% 1016.3 hPa 0 mm - 176 W/m² -
1788629560 36.11° C 53% 1016.1 hPa 0 mm - 658 W/m² -
1788629253 36.11° C 53% 1016.2 hPa 0 mm - 548 W/m² -
1788628952 35° C 54% 1016.1 hPa 0 mm - 688 W/m² -
1788628648 35° C 56% 1016.2 hPa 0 mm - 159 W/m² -
1788628344 36.11° C 56% 1016.2 hPa 0 mm - 541 W/m² -
1788628041 37.22° C 56% 1016.3 hPa 0 mm - 632 W/m² -
1788627742 36.11° C 54% 1016.7 hPa 0 mm - 626 W/m² -
1788627441 35.56° C 57% 1016.5 hPa 0 mm - 627 W/m² -
1788627136 35.56° C 56% 1016.5 hPa 0 mm - 616 W/m² -
1788626831 36.11° C 57% 1016.6 hPa 0 mm - 608 W/m² -
1788626531 36.11° C 57% 1016.6 hPa 0 mm - 605 W/m² -
1788626226 37.22° C 54% 1016.7 hPa 0 mm - 605 W/m² -
1788625923 36.11° C 55% 1016.8 hPa 0 mm - 596 W/m² -
1788625619 35° C 57% 1016.8 hPa 0 mm - 590 W/m² -
1788625318 34.44° C 60% 1016.9 hPa 0 mm - 582 W/m² -
1788625013 35.56° C 59% 1016.9 hPa 0 mm - 575 W/m² -
1788624711 35° C 59% 1016.9 hPa 0 mm - 567 W/m² -
1788624410 35° C 59% 1016.8 hPa 0 mm - 561 W/m² -
1788624109 33.89° C 62% 1016.8 hPa 0 mm - 552 W/m² -
1788623804 35° C 62% 1016.9 hPa 0 mm - 546 W/m² -

* Rain latest hour (hover to see other rain measurements)
** Current wind speed in m/s (hover to see current wind gust speed)